sensor_id;sensor_type;location;lat;lon;timestamp;P1;durP1;ratioP1;P2;durP2;ratioP2
38262;SDS011;24054;50.128;19.730;2023-04-02T00:01:17;6.97;;;5.43;;
38262;SDS011;24054;50.128;19.730;2023-04-02T00:06:54;6.80;;;5.53;;
38262;SDS011;24054;50.128;19.730;2023-04-02T00:09:41;8.05;;;5.05;;
38262;SDS011;24054;50.128;19.730;2023-04-02T00:12:13;9.15;;;4.95;;
38262;SDS011;24054;50.128;19.730;2023-04-02T00:14:51;8.07;;;5.18;;
38262;SDS011;24054;50.128;19.730;2023-04-02T00:17:20;7.03;;;5.32;;
38262;SDS011;24054;50.128;19.730;2023-04-02T00:19:50;6.20;;;4.68;;
38262;SDS011;24054;50.128;19.730;2023-04-02T00:22:24;6.95;;;4.78;;
38262;SDS011;24054;50.128;19.730;2023-04-02T00:24:55;6.63;;;5.03;;
38262;SDS011;24054;50.128;19.730;2023-04-02T00:27:25;9.43;;;5.20;;
38262;SDS011;24054;50.128;19.730;2023-04-02T00:29:54;8.95;;;5.22;;
38262;SDS011;24054;50.128;19.730;2023-04-02T00:32:24;8.23;;;5.45;;
38262;SDS011;24054;50.128;19.730;2023-04-02T00:34:52;7.55;;;5.60;;
38262;SDS011;24054;50.128;19.730;2023-04-02T00:37:21;6.05;;;4.43;;
38262;SDS011;24054;50.128;19.730;2023-04-02T00:39:53;6.60;;;4.72;;
38262;SDS011;24054;50.128;19.730;2023-04-02T00:42:26;7.53;;;4.63;;
38262;SDS011;24054;50.128;19.730;2023-04-02T00:44:57;7.18;;;5.35;;
38262;SDS011;24054;50.128;19.730;2023-04-02T00:47:31;7.38;;;5.45;;
38262;SDS011;24054;50.128;19.730;2023-04-02T00:50:03;7.50;;;4.90;;
38262;SDS011;24054;50.128;19.730;2023-04-02T00:52:31;6.63;;;4.93;;
38262;SDS011;24054;50.128;19.730;2023-04-02T00:57:31;6.50;;;4.82;;
38262;SDS011;24054;50.128;19.730;2023-04-02T01:00:08;6.67;;;4.80;;
38262;SDS011;24054;50.128;19.730;2023-04-02T01:02:45;6.70;;;4.82;;
38262;SDS011;24054;50.128;19.730;2023-04-02T01:05:55;7.10;;;5.15;;
38262;SDS011;24054;50.128;19.730;2023-04-02T01:08:28;7.28;;;5.43;;
38262;SDS011;24054;50.128;19.730;2023-04-02T01:11:03;5.97;;;4.47;;
38262;SDS011;24054;50.128;19.730;2023-04-02T01:13:43;5.93;;;4.88;;
38262;SDS011;24054;50.128;19.730;2023-04-02T01:16:21;6.95;;;5.03;;
38262;SDS011;24054;50.128;19.730;2023-04-02T01:19:01;7.38;;;5.25;;
38262;SDS011;24054;50.128;19.730;2023-04-02T01:21:47;5.43;;;4.55;;
38262;SDS011;24054;50.128;19.730;2023-04-02T01:24:23;6.72;;;4.55;;
38262;SDS011;24054;50.128;19.730;2023-04-02T01:26:55;6.60;;;4.97;;
38262;SDS011;24054;50.128;19.730;2023-04-02T01:31:54;6.05;;;4.90;;
38262;SDS011;24054;50.128;19.730;2023-04-02T01:34:24;7.05;;;5.10;;
38262;SDS011;24054;50.128;19.730;2023-04-02T01:36:57;5.65;;;4.55;;
38262;SDS011;24054;50.128;19.730;2023-04-02T01:42:16;6.47;;;4.85;;
38262;SDS011;24054;50.128;19.730;2023-04-02T01:44:49;7.15;;;5.00;;
38262;SDS011;24054;50.128;19.730;2023-04-02T01:47:18;6.82;;;4.80;;
38262;SDS011;24054;50.128;19.730;2023-04-02T01:49:47;8.65;;;5.07;;
38262;SDS011;24054;50.128;19.730;2023-04-02T01:52:15;7.55;;;4.78;;
38262;SDS011;24054;50.128;19.730;2023-04-02T01:54:44;7.03;;;5.03;;
38262;SDS011;24054;50.128;19.730;2023-04-02T01:57:12;7.25;;;4.85;;
38262;SDS011;24054;50.128;19.730;2023-04-02T01:59:41;5.97;;;4.43;;
38262;SDS011;24054;50.128;19.730;2023-04-02T02:02:10;6.80;;;5.22;;
38262;SDS011;24054;50.128;19.730;2023-04-02T02:04:38;7.60;;;5.13;;
38262;SDS011;24054;50.128;19.730;2023-04-02T02:07:10;6.18;;;4.50;;
38262;SDS011;24054;50.128;19.730;2023-04-02T02:09:39;7.22;;;5.18;;
38262;SDS011;24054;50.128;19.730;2023-04-02T02:12:08;7.07;;;4.90;;
38262;SDS011;24054;50.128;19.730;2023-04-02T02:14:38;6.72;;;5.20;;
38262;SDS011;24054;50.128;19.730;2023-04-02T02:17:12;7.05;;;4.72;;
38262;SDS011;24054;50.128;19.730;2023-04-02T02:19:41;6.13;;;4.85;;
38262;SDS011;24054;50.128;19.730;2023-04-02T02:22:12;7.45;;;4.88;;
38262;SDS011;24054;50.128;19.730;2023-04-02T02:24:44;6.07;;;4.93;;
38262;SDS011;24054;50.128;19.730;2023-04-02T02:27:25;6.57;;;5.18;;
38262;SDS011;24054;50.128;19.730;2023-04-02T02:30:22;6.00;;;4.65;;
38262;SDS011;24054;50.128;19.730;2023-04-02T02:32:54;6.78;;;4.82;;
38262;SDS011;24054;50.128;19.730;2023-04-02T02:35:27;6.68;;;4.85;;
38262;SDS011;24054;50.128;19.730;2023-04-02T02:38:00;5.35;;;4.45;;
38262;SDS011;24054;50.128;19.730;2023-04-02T02:40:35;6.20;;;4.80;;
38262;SDS011;24054;50.128;19.730;2023-04-02T02:43:09;5.78;;;4.22;;
38262;SDS011;24054;50.128;19.730;2023-04-02T02:45:40;6.40;;;5.38;;
38262;SDS011;24054;50.128;19.730;2023-04-02T02:48:13;6.07;;;4.68;;
38262;SDS011;24054;50.128;19.730;2023-04-02T02:50:43;6.15;;;4.60;;
38262;SDS011;24054;50.128;19.730;2023-04-02T02:53:14;6.30;;;4.47;;
38262;SDS011;24054;50.128;19.730;2023-04-02T02:55:44;5.35;;;4.43;;
38262;SDS011;24054;50.128;19.730;2023-04-02T02:58:15;6.95;;;4.93;;
38262;SDS011;24054;50.128;19.730;2023-04-02T03:00:47;6.20;;;4.63;;
38262;SDS011;24054;50.128;19.730;2023-04-02T03:03:17;5.57;;;4.87;;
38262;SDS011;24054;50.128;19.730;2023-04-02T03:05:49;6.50;;;4.22;;
38262;SDS011;24054;50.128;19.730;2023-04-02T03:08:19;5.22;;;4.10;;
38262;SDS011;24054;50.128;19.730;2023-04-02T03:10:53;6.05;;;4.28;;
38262;SDS011;24054;50.128;19.730;2023-04-02T03:13:25;5.57;;;4.72;;
38262;SDS011;24054;50.128;19.730;2023-04-02T03:15:58;5.38;;;4.55;;
38262;SDS011;24054;50.128;19.730;2023-04-02T03:18:38;6.70;;;4.82;;
38262;SDS011;24054;50.128;19.730;2023-04-02T03:21:12;5.40;;;4.53;;
38262;SDS011;24054;50.128;19.730;2023-04-02T03:23:46;6.15;;;4.40;;
38262;SDS011;24054;50.128;19.730;2023-04-02T03:26:19;5.15;;;4.30;;
38262;SDS011;24054;50.128;19.730;2023-04-02T03:28:51;5.28;;;4.35;;
38262;SDS011;24054;50.128;19.730;2023-04-02T03:31:23;5.88;;;4.50;;
38262;SDS011;24054;50.128;19.730;2023-04-02T03:33:55;6.60;;;4.45;;
38262;SDS011;24054;50.128;19.730;2023-04-02T03:36:29;4.82;;;4.32;;
38262;SDS011;24054;50.128;19.730;2023-04-02T03:39:00;4.75;;;3.95;;
38262;SDS011;24054;50.128;19.730;2023-04-02T03:41:37;5.80;;;4.07;;
38262;SDS011;24054;50.128;19.730;2023-04-02T03:44:14;5.55;;;4.15;;
38262;SDS011;24054;50.128;19.730;2023-04-02T03:46:46;4.78;;;4.18;;
38262;SDS011;24054;50.128;19.730;2023-04-02T03:49:24;7.85;;;4.30;;
38262;SDS011;24054;50.128;19.730;2023-04-02T03:51:56;4.95;;;3.97;;
38262;SDS011;24054;50.128;19.730;2023-04-02T03:54:26;5.05;;;4.13;;
38262;SDS011;24054;50.128;19.730;2023-04-02T03:56:53;5.28;;;4.00;;
38262;SDS011;24054;50.128;19.730;2023-04-02T03:59:21;4.90;;;4.32;;
38262;SDS011;24054;50.128;19.730;2023-04-02T04:01:57;5.63;;;4.43;;
38262;SDS011;24054;50.128;19.730;2023-04-02T04:04:28;5.32;;;4.20;;
38262;SDS011;24054;50.128;19.730;2023-04-02T04:06:57;5.68;;;4.50;;
38262;SDS011;24054;50.128;19.730;2023-04-02T04:09:28;4.78;;;4.10;;
38262;SDS011;24054;50.128;19.730;2023-04-02T04:12:01;4.72;;;3.88;;
38262;SDS011;24054;50.128;19.730;2023-04-02T04:14:39;4.93;;;3.88;;
38262;SDS011;24054;50.128;19.730;2023-04-02T04:17:10;5.75;;;4.50;;
38262;SDS011;24054;50.128;19.730;2023-04-02T04:19:49;4.47;;;3.90;;
38262;SDS011;24054;50.128;19.730;2023-04-02T04:22:21;5.20;;;3.90;;
38262;SDS011;24054;50.128;19.730;2023-04-02T04:24:54;5.90;;;3.97;;
38262;SDS011;24054;50.128;19.730;2023-04-02T04:27:22;5.40;;;4.20;;
38262;SDS011;24054;50.128;19.730;2023-04-02T04:29:58;5.30;;;4.05;;
38262;SDS011;24054;50.128;19.730;2023-04-02T04:32:30;5.18;;;4.20;;
38262;SDS011;24054;50.128;19.730;2023-04-02T04:35:05;4.97;;;3.97;;
38262;SDS011;24054;50.128;19.730;2023-04-02T04:37:41;4.78;;;3.88;;
38262;SDS011;24054;50.128;19.730;2023-04-02T04:40:15;4.68;;;4.03;;
38262;SDS011;24054;50.128;19.730;2023-04-02T04:42:48;3.75;;;3.38;;
38262;SDS011;24054;50.128;19.730;2023-04-02T04:45:27;4.25;;;3.85;;
38262;SDS011;24054;50.128;19.730;2023-04-02T04:48:01;5.22;;;4.00;;
38262;SDS011;24054;50.128;19.730;2023-04-02T04:50:36;5.38;;;4.03;;
38262;SDS011;24054;50.128;19.730;2023-04-02T04:53:12;3.92;;;3.20;;
38262;SDS011;24054;50.128;19.730;2023-04-02T04:55:42;5.20;;;4.07;;
38262;SDS011;24054;50.128;19.730;2023-04-02T04:58:13;6.63;;;4.05;;
38262;SDS011;24054;50.128;19.730;2023-04-02T05:00:54;5.53;;;4.18;;
38262;SDS011;24054;50.128;19.730;2023-04-02T05:03:27;5.00;;;3.95;;
38262;SDS011;24054;50.128;19.730;2023-04-02T05:06:04;4.10;;;3.70;;
38262;SDS011;24054;50.128;19.730;2023-04-02T05:08:36;5.55;;;4.28;;
38262;SDS011;24054;50.128;19.730;2023-04-02T05:11:08;5.00;;;4.30;;
38262;SDS011;24054;50.128;19.730;2023-04-02T05:13:39;5.07;;;3.85;;
38262;SDS011;24054;50.128;19.730;2023-04-02T05:16:13;4.75;;;3.88;;
38262;SDS011;24054;50.128;19.730;2023-04-02T05:18:44;5.32;;;3.85;;
38262;SDS011;24054;50.128;19.730;2023-04-02T05:21:18;3.92;;;3.42;;
38262;SDS011;24054;50.128;19.730;2023-04-02T05:23:50;4.43;;;3.78;;
38262;SDS011;24054;50.128;19.730;2023-04-02T05:26:24;4.28;;;3.50;;
38262;SDS011;24054;50.128;19.730;2023-04-02T05:28:56;3.88;;;3.45;;
38262;SDS011;24054;50.128;19.730;2023-04-02T05:31:27;4.47;;;3.88;;
38262;SDS011;24054;50.128;19.730;2023-04-02T05:34:00;4.72;;;3.67;;
38262;SDS011;24054;50.128;19.730;2023-04-02T05:36:29;4.47;;;3.80;;
38262;SDS011;24054;50.128;19.730;2023-04-02T05:38:57;3.58;;;3.10;;
38262;SDS011;24054;50.128;19.730;2023-04-02T05:41:26;4.35;;;3.30;;
38262;SDS011;24054;50.128;19.730;2023-04-02T05:43:57;5.45;;;4.07;;
38262;SDS011;24054;50.128;19.730;2023-04-02T05:46:33;4.30;;;3.50;;
38262;SDS011;24054;50.128;19.730;2023-04-02T05:49:03;4.07;;;3.15;;
38262;SDS011;24054;50.128;19.730;2023-04-02T05:51:37;3.88;;;3.47;;
38262;SDS011;24054;50.128;19.730;2023-04-02T05:54:12;4.25;;;3.53;;
38262;SDS011;24054;50.128;19.730;2023-04-02T05:56:47;3.90;;;3.30;;
38262;SDS011;24054;50.128;19.730;2023-04-02T05:59:18;3.95;;;3.30;;
38262;SDS011;24054;50.128;19.730;2023-04-02T06:01:49;3.85;;;3.22;;
38262;SDS011;24054;50.128;19.730;2023-04-02T06:04:21;3.65;;;3.03;;
38262;SDS011;24054;50.128;19.730;2023-04-02T06:06:57;4.60;;;3.65;;
38262;SDS011;24054;50.128;19.730;2023-04-02T06:09:28;4.43;;;3.70;;
38262;SDS011;24054;50.128;19.730;2023-04-02T06:12:06;3.95;;;3.17;;
38262;SDS011;24054;50.128;19.730;2023-04-02T06:14:40;4.70;;;3.63;;
38262;SDS011;24054;50.128;19.730;2023-04-02T06:17:08;4.35;;;3.17;;
38262;SDS011;24054;50.128;19.730;2023-04-02T06:19:39;3.67;;;3.13;;
38262;SDS011;24054;50.128;19.730;2023-04-02T06:22:09;3.67;;;3.20;;
38262;SDS011;24054;50.128;19.730;2023-04-02T06:24:43;3.55;;;3.20;;
38262;SDS011;24054;50.128;19.730;2023-04-02T06:27:13;4.05;;;3.28;;
38262;SDS011;24054;50.128;19.730;2023-04-02T06:29:46;3.85;;;3.35;;
38262;SDS011;24054;50.128;19.730;2023-04-02T06:32:17;4.07;;;3.20;;
38262;SDS011;24054;50.128;19.730;2023-04-02T06:34:46;3.70;;;3.13;;
38262;SDS011;24054;50.128;19.730;2023-04-02T06:37:16;3.92;;;2.97;;
38262;SDS011;24054;50.128;19.730;2023-04-02T06:39:49;4.10;;;3.20;;
38262;SDS011;24054;50.128;19.730;2023-04-02T06:42:16;3.50;;;3.20;;
38262;SDS011;24054;50.128;19.730;2023-04-02T06:44:47;3.55;;;3.15;;
38262;SDS011;24054;50.128;19.730;2023-04-02T06:47:15;4.00;;;2.85;;
38262;SDS011;24054;50.128;19.730;2023-04-02T06:49:50;3.30;;;2.78;;
38262;SDS011;24054;50.128;19.730;2023-04-02T06:52:24;3.95;;;2.95;;
38262;SDS011;24054;50.128;19.730;2023-04-02T06:54:55;4.03;;;3.30;;
38262;SDS011;24054;50.128;19.730;2023-04-02T06:57:22;3.35;;;2.88;;
38262;SDS011;24054;50.128;19.730;2023-04-02T06:59:49;4.05;;;2.72;;
38262;SDS011;24054;50.128;19.730;2023-04-02T07:02:20;3.78;;;3.10;;
38262;SDS011;24054;50.128;19.730;2023-04-02T07:04:52;3.65;;;2.92;;
38262;SDS011;24054;50.128;19.730;2023-04-02T07:07:25;6.65;;;3.13;;
38262;SDS011;24054;50.128;19.730;2023-04-02T07:09:52;3.15;;;2.85;;
38262;SDS011;24054;50.128;19.730;2023-04-02T07:12:21;3.22;;;2.75;;
38262;SDS011;24054;50.128;19.730;2023-04-02T07:14:50;3.53;;;2.83;;
38262;SDS011;24054;50.128;19.730;2023-04-02T07:17:18;3.47;;;3.13;;
38262;SDS011;24054;50.128;19.730;2023-04-02T07:19:45;3.53;;;2.90;;
38262;SDS011;24054;50.128;19.730;2023-04-02T07:22:14;3.55;;;2.97;;
38262;SDS011;24054;50.128;19.730;2023-04-02T07:24:44;3.72;;;3.30;;
38262;SDS011;24054;50.128;19.730;2023-04-02T07:27:12;4.95;;;3.30;;
38262;SDS011;24054;50.128;19.730;2023-04-02T07:29:40;5.22;;;4.07;;
38262;SDS011;24054;50.128;19.730;2023-04-02T07:32:08;4.80;;;4.13;;
38262;SDS011;24054;50.128;19.730;2023-04-02T07:34:35;5.38;;;4.03;;
38262;SDS011;24054;50.128;19.730;2023-04-02T07:37:03;5.20;;;4.70;;
38262;SDS011;24054;50.128;19.730;2023-04-02T07:39:31;5.13;;;4.63;;
38262;SDS011;24054;50.128;19.730;2023-04-02T07:42:02;5.05;;;4.55;;
38262;SDS011;24054;50.128;19.730;2023-04-02T07:44:30;5.45;;;4.82;;
38262;SDS011;24054;50.128;19.730;2023-04-02T07:46:57;5.15;;;4.35;;
38262;SDS011;24054;50.128;19.730;2023-04-02T07:49:24;6.38;;;4.57;;
38262;SDS011;24054;50.128;19.730;2023-04-02T07:51:52;4.78;;;4.25;;
38262;SDS011;24054;50.128;19.730;2023-04-02T07:54:19;6.13;;;3.90;;
38262;SDS011;24054;50.128;19.730;2023-04-02T07:56:46;6.13;;;4.40;;
38262;SDS011;24054;50.128;19.730;2023-04-02T07:59:15;4.57;;;3.92;;
38262;SDS011;24054;50.128;19.730;2023-04-02T08:01:42;4.80;;;4.13;;
38262;SDS011;24054;50.128;19.730;2023-04-02T08:04:14;4.13;;;3.60;;
38262;SDS011;24054;50.128;19.730;2023-04-02T08:06:43;5.65;;;4.15;;
38262;SDS011;24054;50.128;19.730;2023-04-02T08:09:11;6.17;;;3.83;;
38262;SDS011;24054;50.128;19.730;2023-04-02T08:11:38;3.92;;;3.33;;
38262;SDS011;24054;50.128;19.730;2023-04-02T08:14:06;6.80;;;4.03;;
38262;SDS011;24054;50.128;19.730;2023-04-02T08:16:43;4.35;;;3.40;;
38262;SDS011;24054;50.128;19.730;2023-04-02T08:19:12;8.43;;;4.15;;
38262;SDS011;24054;50.128;19.730;2023-04-02T08:21:42;6.20;;;3.90;;
38262;SDS011;24054;50.128;19.730;2023-04-02T08:24:09;4.90;;;3.70;;
38262;SDS011;24054;50.128;19.730;2023-04-02T08:26:39;8.20;;;4.68;;
38262;SDS011;24054;50.128;19.730;2023-04-02T08:29:09;20.20;;;9.65;;
38262;SDS011;24054;50.128;19.730;2023-04-02T08:31:36;21.20;;;10.00;;
38262;SDS011;24054;50.128;19.730;2023-04-02T08:34:04;22.15;;;9.70;;
38262;SDS011;24054;50.128;19.730;2023-04-02T08:36:32;20.52;;;10.20;;
38262;SDS011;24054;50.128;19.730;2023-04-02T08:39:01;16.13;;;8.45;;
38262;SDS011;24054;50.128;19.730;2023-04-02T08:41:28;18.63;;;9.18;;
38262;SDS011;24054;50.128;19.730;2023-04-02T08:46:50;15.57;;;6.93;;
38262;SDS011;24054;50.128;19.730;2023-04-02T08:49:24;16.98;;;8.38;;
38262;SDS011;24054;50.128;19.730;2023-04-02T08:51:56;13.88;;;8.05;;
38262;SDS011;24054;50.128;19.730;2023-04-02T08:54:23;15.60;;;8.55;;
38262;SDS011;24054;50.128;19.730;2023-04-02T08:56:54;16.67;;;8.32;;
38262;SDS011;24054;50.128;19.730;2023-04-02T08:59:26;17.55;;;8.48;;
38262;SDS011;24054;50.128;19.730;2023-04-02T09:01:59;16.13;;;9.02;;
38262;SDS011;24054;50.128;19.730;2023-04-02T09:04:44;15.32;;;7.57;;
38262;SDS011;24054;50.128;19.730;2023-04-02T09:07:12;13.60;;;6.72;;
38262;SDS011;24054;50.128;19.730;2023-04-02T09:09:41;14.00;;;7.28;;
38262;SDS011;24054;50.128;19.730;2023-04-02T09:12:13;20.20;;;8.00;;
38262;SDS011;24054;50.128;19.730;2023-04-02T09:14:44;16.23;;;6.95;;
38262;SDS011;24054;50.128;19.730;2023-04-02T09:17:21;14.88;;;7.18;;
38262;SDS011;24054;50.128;19.730;2023-04-02T09:19:53;12.82;;;6.50;;
38262;SDS011;24054;50.128;19.730;2023-04-02T09:22:24;15.82;;;6.82;;
38262;SDS011;24054;50.128;19.730;2023-04-02T09:24:53;14.10;;;6.82;;
38262;SDS011;24054;50.128;19.730;2023-04-02T09:27:22;12.10;;;6.35;;
38262;SDS011;24054;50.128;19.730;2023-04-02T09:29:52;17.00;;;6.88;;
38262;SDS011;24054;50.128;19.730;2023-04-02T09:32:22;16.65;;;7.07;;
38262;SDS011;24054;50.128;19.730;2023-04-02T09:35:13;17.63;;;6.43;;
38262;SDS011;24054;50.128;19.730;2023-04-02T09:37:42;14.25;;;6.18;;
38262;SDS011;24054;50.128;19.730;2023-04-02T09:43:07;11.95;;;6.30;;
38262;SDS011;24054;50.128;19.730;2023-04-02T09:45:37;11.93;;;5.82;;
38262;SDS011;24054;50.128;19.730;2023-04-02T09:48:14;13.40;;;5.30;;
38262;SDS011;24054;50.128;19.730;2023-04-02T09:50:49;10.00;;;5.60;;
38262;SDS011;24054;50.128;19.730;2023-04-02T09:53:28;11.00;;;5.60;;
38262;SDS011;24054;50.128;19.730;2023-04-02T09:56:11;12.07;;;5.68;;
38262;SDS011;24054;50.128;19.730;2023-04-02T09:58:41;13.48;;;5.38;;
38262;SDS011;24054;50.128;19.730;2023-04-02T10:03:53;12.05;;;5.30;;
38262;SDS011;24054;50.128;19.730;2023-04-02T10:06:21;11.50;;;6.13;;
38262;SDS011;24054;50.128;19.730;2023-04-02T10:08:49;12.63;;;5.13;;
38262;SDS011;24054;50.128;19.730;2023-04-02T10:11:17;15.15;;;6.25;;
38262;SDS011;24054;50.128;19.730;2023-04-02T10:13:50;10.65;;;4.47;;
38262;SDS011;24054;50.128;19.730;2023-04-02T10:16:21;11.85;;;5.70;;
38262;SDS011;24054;50.128;19.730;2023-04-02T10:18:57;9.85;;;4.95;;
38262;SDS011;24054;50.128;19.730;2023-04-02T10:21:28;10.88;;;4.47;;
38262;SDS011;24054;50.128;19.730;2023-04-02T10:23:59;10.77;;;4.53;;
38262;SDS011;24054;50.128;19.730;2023-04-02T10:26:32;10.25;;;5.13;;
38262;SDS011;24054;50.128;19.730;2023-04-02T10:29:13;10.52;;;4.93;;
38262;SDS011;24054;50.128;19.730;2023-04-02T10:31:57;11.38;;;5.00;;
38262;SDS011;24054;50.128;19.730;2023-04-02T10:34:33;9.27;;;4.60;;
38262;SDS011;24054;50.128;19.730;2023-04-02T10:37:12;8.63;;;4.20;;
38262;SDS011;24054;50.128;19.730;2023-04-02T10:40:04;9.27;;;3.67;;
38262;SDS011;24054;50.128;19.730;2023-04-02T10:42:37;6.93;;;3.90;;
38262;SDS011;24054;50.128;19.730;2023-04-02T10:45:15;9.30;;;4.00;;
38262;SDS011;24054;50.128;19.730;2023-04-02T10:47:50;7.57;;;3.92;;
38262;SDS011;24054;50.128;19.730;2023-04-02T10:50:27;6.88;;;3.33;;
38262;SDS011;24054;50.128;19.730;2023-04-02T10:53:05;5.63;;;3.35;;
38262;SDS011;24054;50.128;19.730;2023-04-02T10:55:43;6.72;;;3.22;;
38262;SDS011;24054;50.128;19.730;2023-04-02T10:58:16;5.82;;;3.40;;
38262;SDS011;24054;50.128;19.730;2023-04-02T11:00:47;8.07;;;3.42;;
38262;SDS011;24054;50.128;19.730;2023-04-02T11:03:17;6.05;;;3.00;;
38262;SDS011;24054;50.128;19.730;2023-04-02T11:05:53;9.20;;;3.60;;
38262;SDS011;24054;50.128;19.730;2023-04-02T11:08:25;6.18;;;3.50;;
38262;SDS011;24054;50.128;19.730;2023-04-02T11:10:56;6.47;;;3.30;;
38262;SDS011;24054;50.128;19.730;2023-04-02T11:13:27;9.95;;;3.97;;
38262;SDS011;24054;50.128;19.730;2023-04-02T11:15:56;8.40;;;4.00;;
38262;SDS011;24054;50.128;19.730;2023-04-02T11:18:25;7.50;;;3.92;;
38262;SDS011;24054;50.128;19.730;2023-04-02T11:21:00;7.20;;;3.42;;
38262;SDS011;24054;50.128;19.730;2023-04-02T11:26:33;9.45;;;3.83;;
38262;SDS011;24054;50.128;19.730;2023-04-02T11:34:59;7.97;;;3.60;;
38262;SDS011;24054;50.128;19.730;2023-04-02T11:37:30;7.03;;;3.15;;
38262;SDS011;24054;50.128;19.730;2023-04-02T11:40:05;8.65;;;3.95;;
38262;SDS011;24054;50.128;19.730;2023-04-02T11:42:48;8.05;;;3.47;;
38262;SDS011;24054;50.128;19.730;2023-04-02T11:50:54;10.48;;;3.47;;
38262;SDS011;24054;50.128;19.730;2023-04-02T11:53:23;9.30;;;4.18;;
38262;SDS011;24054;50.128;19.730;2023-04-02T11:56:09;11.35;;;3.83;;
38262;SDS011;24054;50.128;19.730;2023-04-02T11:59:00;8.93;;;3.65;;
38262;SDS011;24054;50.128;19.730;2023-04-02T12:01:43;11.35;;;4.30;;
38262;SDS011;24054;50.128;19.730;2023-04-02T12:04:39;8.05;;;3.25;;
38262;SDS011;24054;50.128;19.730;2023-04-02T12:07:32;9.52;;;3.47;;
38262;SDS011;24054;50.128;19.730;2023-04-02T12:10:17;6.85;;;3.40;;
38262;SDS011;24054;50.128;19.730;2023-04-02T12:12:48;6.25;;;3.08;;
38262;SDS011;24054;50.128;19.730;2023-04-02T12:15:32;10.30;;;3.60;;
38262;SDS011;24054;50.128;19.730;2023-04-02T12:18:08;6.25;;;3.20;;
38262;SDS011;24054;50.128;19.730;2023-04-02T12:20:39;6.30;;;3.38;;
38262;SDS011;24054;50.128;19.730;2023-04-02T12:23:11;9.23;;;3.28;;
38262;SDS011;24054;50.128;19.730;2023-04-02T12:25:44;7.05;;;3.17;;
38262;SDS011;24054;50.128;19.730;2023-04-02T12:28:24;7.10;;;3.33;;
38262;SDS011;24054;50.128;19.730;2023-04-02T12:31:03;6.05;;;3.22;;
38262;SDS011;24054;50.128;19.730;2023-04-02T12:33:37;5.75;;;3.03;;
38262;SDS011;24054;50.128;19.730;2023-04-02T12:36:05;5.15;;;3.25;;
38262;SDS011;24054;50.128;19.730;2023-04-02T12:40:51;7.32;;;2.75;;
38262;SDS011;24054;50.128;19.730;2023-04-02T12:43:23;7.13;;;2.78;;
38262;SDS011;24054;50.128;19.730;2023-04-02T12:45:52;7.53;;;3.10;;
38262;SDS011;24054;50.128;19.730;2023-04-02T12:48:19;3.50;;;2.08;;
38262;SDS011;24054;50.128;19.730;2023-04-02T12:50:47;5.65;;;2.78;;
38262;SDS011;24054;50.128;19.730;2023-04-02T12:53:18;8.32;;;3.00;;
38262;SDS011;24054;50.128;19.730;2023-04-02T12:55:46;6.88;;;2.67;;
38262;SDS011;24054;50.128;19.730;2023-04-02T13:01:10;4.35;;;2.47;;
38262;SDS011;24054;50.128;19.730;2023-04-02T13:03:38;3.53;;;2.05;;
38262;SDS011;24054;50.128;19.730;2023-04-02T13:06:17;5.80;;;3.10;;
38262;SDS011;24054;50.128;19.730;2023-04-02T13:08:48;6.07;;;2.80;;
38262;SDS011;24054;50.128;19.730;2023-04-02T13:11:15;4.97;;;2.22;;
38262;SDS011;24054;50.128;19.730;2023-04-02T13:13:44;5.45;;;2.78;;
38262;SDS011;24054;50.128;19.730;2023-04-02T13:16:23;7.70;;;2.78;;
38262;SDS011;24054;50.128;19.730;2023-04-02T13:19:06;5.75;;;2.78;;
38262;SDS011;24054;50.128;19.730;2023-04-02T13:21:47;7.07;;;2.90;;
38262;SDS011;24054;50.128;19.730;2023-04-02T13:24:15;4.07;;;2.10;;
38262;SDS011;24054;50.128;19.730;2023-04-02T13:26:43;3.85;;;2.47;;
38262;SDS011;24054;50.128;19.730;2023-04-02T13:29:21;4.90;;;2.30;;
38262;SDS011;24054;50.128;19.730;2023-04-02T13:31:50;7.07;;;3.03;;
38262;SDS011;24054;50.128;19.730;2023-04-02T13:34:17;3.92;;;2.45;;
38262;SDS011;24054;50.128;19.730;2023-04-02T13:36:45;5.93;;;2.60;;
38262;SDS011;24054;50.128;19.730;2023-04-02T13:39:15;5.53;;;2.17;;
38262;SDS011;24054;50.128;19.730;2023-04-02T13:41:43;7.93;;;2.78;;
38262;SDS011;24054;50.128;19.730;2023-04-02T13:44:22;5.80;;;2.85;;
38262;SDS011;24054;50.128;19.730;2023-04-02T13:46:51;4.82;;;2.28;;
38262;SDS011;24054;50.128;19.730;2023-04-02T13:49:19;6.78;;;2.40;;
38262;SDS011;24054;50.128;19.730;2023-04-02T13:51:47;5.00;;;2.05;;
38262;SDS011;24054;50.128;19.730;2023-04-02T13:54:17;6.32;;;3.00;;
38262;SDS011;24054;50.128;19.730;2023-04-02T13:56:49;4.28;;;2.10;;
38262;SDS011;24054;50.128;19.730;2023-04-02T13:59:16;5.57;;;2.35;;
38262;SDS011;24054;50.128;19.730;2023-04-02T14:01:45;4.72;;;2.28;;
38262;SDS011;24054;50.128;19.730;2023-04-02T14:04:14;4.00;;;2.10;;
38262;SDS011;24054;50.128;19.730;2023-04-02T14:07:05;4.35;;;2.00;;
38262;SDS011;24054;50.128;19.730;2023-04-02T14:09:47;4.85;;;2.38;;
38262;SDS011;24054;50.128;19.730;2023-04-02T14:12:32;4.82;;;2.58;;
38262;SDS011;24054;50.128;19.730;2023-04-02T14:15:11;4.78;;;2.03;;
38262;SDS011;24054;50.128;19.730;2023-04-02T14:20:48;6.00;;;2.17;;
38262;SDS011;24054;50.128;19.730;2023-04-02T14:23:31;5.93;;;2.03;;
38262;SDS011;24054;50.128;19.730;2023-04-02T14:26:19;3.50;;;1.92;;
38262;SDS011;24054;50.128;19.730;2023-04-02T14:28:53;4.30;;;2.10;;
38262;SDS011;24054;50.128;19.730;2023-04-02T14:31:26;5.38;;;2.28;;
38262;SDS011;24054;50.128;19.730;2023-04-02T14:34:02;7.65;;;1.75;;
38262;SDS011;24054;50.128;19.730;2023-04-02T14:36:35;5.75;;;2.72;;
38262;SDS011;24054;50.128;19.730;2023-04-02T14:39:15;4.20;;;1.95;;
38262;SDS011;24054;50.128;19.730;2023-04-02T14:41:46;2.97;;;1.70;;
38262;SDS011;24054;50.128;19.730;2023-04-02T14:44:19;4.45;;;2.05;;
38262;SDS011;24054;50.128;19.730;2023-04-02T14:46:51;2.20;;;1.45;;
38262;SDS011;24054;50.128;19.730;2023-04-02T14:49:25;3.92;;;1.92;;
38262;SDS011;24054;50.128;19.730;2023-04-02T14:51:56;4.22;;;1.80;;
38262;SDS011;24054;50.128;19.730;2023-04-02T14:54:28;3.70;;;1.85;;
38262;SDS011;24054;50.128;19.730;2023-04-02T14:57:03;3.25;;;1.80;;
38262;SDS011;24054;50.128;19.730;2023-04-02T14:59:35;4.05;;;1.70;;
38262;SDS011;24054;50.128;19.730;2023-04-02T15:02:11;3.80;;;2.00;;
38262;SDS011;24054;50.128;19.730;2023-04-02T15:04:49;3.90;;;1.85;;
38262;SDS011;24054;50.128;19.730;2023-04-02T15:07:22;3.60;;;2.00;;
38262;SDS011;24054;50.128;19.730;2023-04-02T15:10:03;2.25;;;1.90;;
38262;SDS011;24054;50.128;19.730;2023-04-02T15:12:41;4.57;;;2.47;;
38262;SDS011;24054;50.128;19.730;2023-04-02T15:15:13;5.90;;;2.13;;
38262;SDS011;24054;50.128;19.730;2023-04-02T15:17:48;4.22;;;1.75;;
38262;SDS011;24054;50.128;19.730;2023-04-02T15:20:17;2.08;;;1.80;;
38262;SDS011;24054;50.128;19.730;2023-04-02T15:22:57;2.65;;;1.90;;
38262;SDS011;24054;50.128;19.730;2023-04-02T15:25:32;2.47;;;1.60;;
38262;SDS011;24054;50.128;19.730;2023-04-02T15:28:11;3.97;;;1.75;;
38262;SDS011;24054;50.128;19.730;2023-04-02T15:30:46;2.83;;;1.70;;
38262;SDS011;24054;50.128;19.730;2023-04-02T15:33:23;4.43;;;1.42;;
38262;SDS011;24054;50.128;19.730;2023-04-02T15:36:05;2.40;;;1.60;;
38262;SDS011;24054;50.128;19.730;2023-04-02T15:38:57;3.03;;;1.27;;
38262;SDS011;24054;50.128;19.730;2023-04-02T15:41:31;3.03;;;2.08;;
38262;SDS011;24054;50.128;19.730;2023-04-02T15:44:08;2.13;;;1.50;;
38262;SDS011;24054;50.128;19.730;2023-04-02T15:46:41;2.70;;;1.35;;
38262;SDS011;24054;50.128;19.730;2023-04-02T15:49:20;2.40;;;1.52;;